Palm Harbor, TX

4:06 PM CST on January 24, 2017 (GMT -0600)
Palm Harbor-Buddy's Place | | Change Station

Elev 10 ft 27.97 °N, 97.09 °W | Updated 51 seconds ago

Clear
Clear
72.8 °F
Feels Like 72 °F
N
11.0
Wind Variable Wind from SE
Gusts 11.0 mph

Today
High -- | Low -- °F
--% Chance of Precip.
Yesterday
High -- | Low -- °F
Precip. -- in
Pressure 29.67 in
Visibility 10.0 miles
Clouds Clear
Heat Index 72 °F
Dew Point 68 °F
Humidity 84%
Rainfall 0.00 in
Snow Depth Not available.
7:18 AM 6:02 PM
Waning Crescent, 9% visible
METAR KTFP 242155Z AUTO 17018G24KT 10SM CLR 25/19 A2967 RMK AO2 T02510189
Pressure 29.67 in
Visibility 10.0 miles
Clouds Clear
Heat Index 72 °F
Dew Point 68 °F
Humidity 84%
Rainfall 0.00 in
Snow Depth Not available.
7:18 AM 6:02 PM
Waning Crescent, 9% visible
METAR KTFP 242155Z AUTO 17018G24KT 10SM CLR 25/19 A2967 RMK AO2 T02510189

Get Your Daily Forecast Email!

Thanks for signing up!

Be on the lookout for a verification email in your inbox.

You'll start receiving the daily forecast at 8 AM.

×

10-Day Weather Forecast

Almanac

Astronomy

Jan. 24, 2017 Rise Set
Actual Time
Civil Twilight
Nautical Twilight
Astronomical Twilight
Moon
Length of Visible Light
Length of Day
Tomorrow will be .
, % of the Moon is Illuminated

Today's Extremes

State Highs State Lows

Community

WunderPhotos

Upload Photos

1,962,540 photos uploaded!

WunderBlog® & News

Nearby

Air Quality

  Air Quality AQ Index Pollutant
Not available.

Snow Depth

Station Depth Elevation

Earthquake Activity

City Distance Mag. Time & Date
Minimum magnitude displayed is 2.5.

Coastal Water Temperatures

Place Temperature

Stations

Nearby Weather Stations

Station Location Temp. Windchill Dew Point Humidity Wind Precip. Elev Updated Type
                   

Watches & Warnings

There are currently no watches in effect.